sensor_id;sensor_type;location;lat;lon;timestamp;temperature;humidity
52509;DHT22;38420;53.150;6.370;2023-04-23T00:00:50;8.60;99.90
52509;DHT22;38420;53.150;6.370;2023-04-23T00:03:17;7.40;99.90
52509;DHT22;38420;53.150;6.370;2023-04-23T00:05:44;6.20;99.90
52509;DHT22;38420;53.150;6.370;2023-04-23T00:08:10;6.20;99.90
52509;DHT22;38420;53.150;6.370;2023-04-23T00:10:36;8.80;99.90
52509;DHT22;38420;53.150;6.370;2023-04-23T00:13:02;7.20;99.90
52509;DHT22;38420;53.150;6.370;2023-04-23T00:15:29;8.00;99.90
52509;DHT22;38420;53.150;6.370;2023-04-23T00:17:55;8.80;99.90
52509;DHT22;38420;53.150;6.370;2023-04-23T00:20:20;8.70;99.90
52509;DHT22;38420;53.150;6.370;2023-04-23T00:22:47;8.90;99.90
52509;DHT22;38420;53.150;6.370;2023-04-23T00:25:13;8.70;99.90
52509;DHT22;38420;53.150;6.370;2023-04-23T00:27:38;6.30;99.90
52509;DHT22;38420;53.150;6.370;2023-04-23T00:30:05;7.10;99.90
52509;DHT22;38420;53.150;6.370;2023-04-23T00:32:31;6.30;99.90
52509;DHT22;38420;53.150;6.370;2023-04-23T00:34:57;8.90;99.90
52509;DHT22;38420;53.150;6.370;2023-04-23T00:37:22;6.00;99.90
52509;DHT22;38420;53.150;6.370;2023-04-23T00:39:48;6.30;99.90
52509;DHT22;38420;53.150;6.370;2023-04-23T00:42:13;6.40;99.90
52509;DHT22;38420;53.150;6.370;2023-04-23T00:44:41;7.70;99.90
52509;DHT22;38420;53.150;6.370;2023-04-23T00:47:08;6.00;99.90
52509;DHT22;38420;53.150;6.370;2023-04-23T00:49:34;8.80;99.90
52509;DHT22;38420;53.150;6.370;2023-04-23T00:51:59;6.10;99.90
52509;DHT22;38420;53.150;6.370;2023-04-23T00:54:26;6.00;99.90
52509;DHT22;38420;53.150;6.370;2023-04-23T00:56:52;6.20;99.90
52509;DHT22;38420;53.150;6.370;2023-04-23T00:59:19;8.10;99.90
52509;DHT22;38420;53.150;6.370;2023-04-23T01:01:45;8.80;99.90
52509;DHT22;38420;53.150;6.370;2023-04-23T01:04:13;5.90;99.90
52509;DHT22;38420;53.150;6.370;2023-04-23T01:06:41;8.90;99.90
52509;DHT22;38420;53.150;6.370;2023-04-23T01:09:08;5.80;99.90
52509;DHT22;38420;53.150;6.370;2023-04-23T01:11:38;8.70;99.90
52509;DHT22;38420;53.150;6.370;2023-04-23T01:14:04;7.00;99.90
52509;DHT22;38420;53.150;6.370;2023-04-23T01:16:30;5.70;99.90
52509;DHT22;38420;53.150;6.370;2023-04-23T01:18:55;8.00;99.90
52509;DHT22;38420;53.150;6.370;2023-04-23T01:21:23;6.20;99.90
52509;DHT22;38420;53.150;6.370;2023-04-23T01:23:49;7.00;99.90
52509;DHT22;38420;53.150;6.370;2023-04-23T01:26:15;7.80;99.90
52509;DHT22;38420;53.150;6.370;2023-04-23T01:28:43;8.20;99.90
52509;DHT22;38420;53.150;6.370;2023-04-23T01:31:10;6.30;99.90
52509;DHT22;38420;53.150;6.370;2023-04-23T01:33:39;5.80;99.90
52509;DHT22;38420;53.150;6.370;2023-04-23T01:36:05;7.60;99.90
52509;DHT22;38420;53.150;6.370;2023-04-23T01:38:32;5.60;99.90
52509;DHT22;38420;53.150;6.370;2023-04-23T01:40:58;8.40;99.90
52509;DHT22;38420;53.150;6.370;2023-04-23T01:43:24;6.20;99.90
52509;DHT22;38420;53.150;6.370;2023-04-23T01:45:50;9.10;99.90
52509;DHT22;38420;53.150;6.370;2023-04-23T01:48:16;5.70;99.90
52509;DHT22;38420;53.150;6.370;2023-04-23T01:50:42;8.70;99.90
52509;DHT22;38420;53.150;6.370;2023-04-23T01:53:08;5.60;99.90
52509;DHT22;38420;53.150;6.370;2023-04-23T01:55:37;6.50;99.90
52509;DHT22;38420;53.150;6.370;2023-04-23T01:58:03;6.20;99.90
52509;DHT22;38420;53.150;6.370;2023-04-23T02:00:29;7.50;99.90
52509;DHT22;38420;53.150;6.370;2023-04-23T02:02:55;5.50;99.90
52509;DHT22;38420;53.150;6.370;2023-04-23T02:05:21;8.20;99.90
52509;DHT22;38420;53.150;6.370;2023-04-23T02:07:48;7.50;99.90
52509;DHT22;38420;53.150;6.370;2023-04-23T02:10:15;5.60;99.90
52509;DHT22;38420;53.150;6.370;2023-04-23T02:12:41;5.80;99.90
52509;DHT22;38420;53.150;6.370;2023-04-23T02:15:08;5.50;99.90
52509;DHT22;38420;53.150;6.370;2023-04-23T02:17:34;8.60;99.90
52509;DHT22;38420;53.150;6.370;2023-04-23T02:20:00;5.60;99.90
52509;DHT22;38420;53.150;6.370;2023-04-23T02:22:26;7.80;99.90
52509;DHT22;38420;53.150;6.370;2023-04-23T02:24:53;8.60;99.90
52509;DHT22;38420;53.150;6.370;2023-04-23T02:27:20;8.00;99.90
52509;DHT22;38420;53.150;6.370;2023-04-23T02:29:46;7.70;99.90
52509;DHT22;38420;53.150;6.370;2023-04-23T02:32:12;8.30;99.90
52509;DHT22;38420;53.150;6.370;2023-04-23T02:34:37;6.20;99.90
52509;DHT22;38420;53.150;6.370;2023-04-23T02:37:03;8.30;99.90
52509;DHT22;38420;53.150;6.370;2023-04-23T02:39:32;5.60;99.90
52509;DHT22;38420;53.150;6.370;2023-04-23T02:41:57;8.10;99.90
52509;DHT22;38420;53.150;6.370;2023-04-23T02:44:24;5.50;99.90
52509;DHT22;38420;53.150;6.370;2023-04-23T02:46:50;8.80;99.90
52509;DHT22;38420;53.150;6.370;2023-04-23T02:49:16;5.50;99.90
52509;DHT22;38420;53.150;6.370;2023-04-23T02:51:42;6.70;99.90
52509;DHT22;38420;53.150;6.370;2023-04-23T02:54:08;5.70;99.90
52509;DHT22;38420;53.150;6.370;2023-04-23T02:56:33;8.10;99.90
52509;DHT22;38420;53.150;6.370;2023-04-23T02:58:59;5.70;99.90
52509;DHT22;38420;53.150;6.370;2023-04-23T03:01:25;8.50;99.90
52509;DHT22;38420;53.150;6.370;2023-04-23T03:03:51;5.60;99.90
52509;DHT22;38420;53.150;6.370;2023-04-23T03:06:17;6.30;99.90
52509;DHT22;38420;53.150;6.370;2023-04-23T03:08:42;9.00;99.90
52509;DHT22;38420;53.150;6.370;2023-04-23T03:11:08;7.00;99.90
52509;DHT22;38420;53.150;6.370;2023-04-23T03:13:33;5.70;99.90
52509;DHT22;38420;53.150;6.370;2023-04-23T03:15:59;5.50;99.90
52509;DHT22;38420;53.150;6.370;2023-04-23T03:18:25;8.60;99.90
52509;DHT22;38420;53.150;6.370;2023-04-23T03:20:50;7.40;99.90
52509;DHT22;38420;53.150;6.370;2023-04-23T03:23:16;5.90;99.90
52509;DHT22;38420;53.150;6.370;2023-04-23T03:25:41;5.80;99.90
52509;DHT22;38420;53.150;6.370;2023-04-23T03:28:07;6.20;99.90
52509;DHT22;38420;53.150;6.370;2023-04-23T03:30:33;5.60;99.90
52509;DHT22;38420;53.150;6.370;2023-04-23T03:32:59;8.70;99.90
52509;DHT22;38420;53.150;6.370;2023-04-23T03:35:25;8.00;99.90
52509;DHT22;38420;53.150;6.370;2023-04-23T03:37:51;5.60;99.90
52509;DHT22;38420;53.150;6.370;2023-04-23T03:40:19;9.10;99.90
52509;DHT22;38420;53.150;6.370;2023-04-23T03:42:45;6.60;99.90
52509;DHT22;38420;53.150;6.370;2023-04-23T03:45:11;9.20;99.90
52509;DHT22;38420;53.150;6.370;2023-04-23T03:47:38;6.10;99.90
52509;DHT22;38420;53.150;6.370;2023-04-23T03:50:05;6.90;99.90
52509;DHT22;38420;53.150;6.370;2023-04-23T03:52:31;5.80;99.90
52509;DHT22;38420;53.150;6.370;2023-04-23T03:54:56;6.80;99.90
52509;DHT22;38420;53.150;6.370;2023-04-23T03:57:22;5.80;99.90
52509;DHT22;38420;53.150;6.370;2023-04-23T03:59:48;9.30;99.90
52509;DHT22;38420;53.150;6.370;2023-04-23T04:02:13;9.10;99.90
52509;DHT22;38420;53.150;6.370;2023-04-23T04:04:39;6.00;99.90
52509;DHT22;38420;53.150;6.370;2023-04-23T04:07:07;9.20;99.90
52509;DHT22;38420;53.150;6.370;2023-04-23T04:09:32;7.00;99.90
52509;DHT22;38420;53.150;6.370;2023-04-23T04:11:58;8.60;99.90
52509;DHT22;38420;53.150;6.370;2023-04-23T04:14:24;9.40;99.90
52509;DHT22;38420;53.150;6.370;2023-04-23T04:16:49;5.70;99.90
52509;DHT22;38420;53.150;6.370;2023-04-23T04:19:15;8.30;99.90
52509;DHT22;38420;53.150;6.370;2023-04-23T04:21:41;7.50;99.90
52509;DHT22;38420;53.150;6.370;2023-04-23T04:24:06;7.80;99.90
52509;DHT22;38420;53.150;6.370;2023-04-23T04:26:33;8.40;99.90
52509;DHT22;38420;53.150;6.370;2023-04-23T04:28:59;9.50;99.90
52509;DHT22;38420;53.150;6.370;2023-04-23T04:31:26;9.30;99.90
52509;DHT22;38420;53.150;6.370;2023-04-23T04:33:53;6.10;99.90
52509;DHT22;38420;53.150;6.370;2023-04-23T04:36:20;6.60;99.90
52509;DHT22;38420;53.150;6.370;2023-04-23T04:38:46;8.50;99.90
52509;DHT22;38420;53.150;6.370;2023-04-23T04:41:11;9.30;99.90
52509;DHT22;38420;53.150;6.370;2023-04-23T04:43:38;6.00;99.90
52509;DHT22;38420;53.150;6.370;2023-04-23T04:46:04;9.60;99.90
52509;DHT22;38420;53.150;6.370;2023-04-23T04:48:30;9.60;99.90
52509;DHT22;38420;53.150;6.370;2023-04-23T04:50:55;9.60;99.90
52509;DHT22;38420;53.150;6.370;2023-04-23T04:53:21;9.10;99.90
52509;DHT22;38420;53.150;6.370;2023-04-23T04:55:47;6.30;99.90
52509;DHT22;38420;53.150;6.370;2023-04-23T04:58:13;5.90;99.90
52509;DHT22;38420;53.150;6.370;2023-04-23T05:00:38;6.00;99.90
52509;DHT22;38420;53.150;6.370;2023-04-23T05:03:04;9.40;99.90
52509;DHT22;38420;53.150;6.370;2023-04-23T05:05:31;9.50;99.90
52509;DHT22;38420;53.150;6.370;2023-04-23T05:07:57;5.90;99.90
52509;DHT22;38420;53.150;6.370;2023-04-23T05:10:26;6.70;99.90
52509;DHT22;38420;53.150;6.370;2023-04-23T05:12:52;9.70;99.90
52509;DHT22;38420;53.150;6.370;2023-04-23T05:15:18;8.30;99.90
52509;DHT22;38420;53.150;6.370;2023-04-23T05:17:44;8.20;99.90
52509;DHT22;38420;53.150;6.370;2023-04-23T05:20:10;6.50;99.90
52509;DHT22;38420;53.150;6.370;2023-04-23T05:22:40;6.20;99.90
52509;DHT22;38420;53.150;6.370;2023-04-23T05:25:07;9.50;99.90
52509;DHT22;38420;53.150;6.370;2023-04-23T05:27:33;8.30;99.90
52509;DHT22;38420;53.150;6.370;2023-04-23T05:30:04;9.40;99.90
52509;DHT22;38420;53.150;6.370;2023-04-23T05:32:31;8.20;99.90
52509;DHT22;38420;53.150;6.370;2023-04-23T05:34:56;9.10;99.90
52509;DHT22;38420;53.150;6.370;2023-04-23T05:37:24;6.40;99.90
52509;DHT22;38420;53.150;6.370;2023-04-23T05:39:50;9.70;99.90
52509;DHT22;38420;53.150;6.370;2023-04-23T05:42:15;9.60;99.90
52509;DHT22;38420;53.150;6.370;2023-04-23T05:44:41;6.40;99.90
52509;DHT22;38420;53.150;6.370;2023-04-23T05:47:07;9.60;99.90
52509;DHT22;38420;53.150;6.370;2023-04-23T05:49:33;6.70;99.90
52509;DHT22;38420;53.150;6.370;2023-04-23T05:51:59;9.30;99.90
52509;DHT22;38420;53.150;6.370;2023-04-23T05:54:27;9.90;99.90
52509;DHT22;38420;53.150;6.370;2023-04-23T05:56:53;7.80;99.90
52509;DHT22;38420;53.150;6.370;2023-04-23T05:59:18;8.80;99.90
52509;DHT22;38420;53.150;6.370;2023-04-23T06:01:44;9.10;99.90
52509;DHT22;38420;53.150;6.370;2023-04-23T06:04:09;7.50;99.90
52509;DHT22;38420;53.150;6.370;2023-04-23T06:06:35;8.30;99.90
52509;DHT22;38420;53.150;6.370;2023-04-23T06:09:01;10.20;99.90
52509;DHT22;38420;53.150;6.370;2023-04-23T06:11:26;9.10;99.90
52509;DHT22;38420;53.150;6.370;2023-04-23T06:13:52;6.60;99.90
52509;DHT22;38420;53.150;6.370;2023-04-23T06:16:17;10.20;99.90
52509;DHT22;38420;53.150;6.370;2023-04-23T06:18:43;10.10;99.90
52509;DHT22;38420;53.150;6.370;2023-04-23T06:21:09;7.20;99.90
52509;DHT22;38420;53.150;6.370;2023-04-23T06:23:34;6.70;99.90
52509;DHT22;38420;53.150;6.370;2023-04-23T06:26:01;9.40;99.90
52509;DHT22;38420;53.150;6.370;2023-04-23T06:28:28;9.90;99.90
52509;DHT22;38420;53.150;6.370;2023-04-23T06:30:54;7.80;99.90
52509;DHT22;38420;53.150;6.370;2023-04-23T06:33:19;10.70;99.90
52509;DHT22;38420;53.150;6.370;2023-04-23T06:35:45;8.20;99.90
52509;DHT22;38420;53.150;6.370;2023-04-23T06:38:11;10.70;99.90
52509;DHT22;38420;53.150;6.370;2023-04-23T06:40:36;10.60;99.90
52509;DHT22;38420;53.150;6.370;2023-04-23T06:43:02;10.00;99.90
52509;DHT22;38420;53.150;6.370;2023-04-23T06:45:33;9.40;99.90
52509;DHT22;38420;53.150;6.370;2023-04-23T06:47:59;7.40;99.90
52509;DHT22;38420;53.150;6.370;2023-04-23T06:50:25;10.60;99.90
52509;DHT22;38420;53.150;6.370;2023-04-23T06:52:51;7.60;99.90
52509;DHT22;38420;53.150;6.370;2023-04-23T06:55:17;7.80;99.90
52509;DHT22;38420;53.150;6.370;2023-04-23T06:57:43;10.80;99.90
52509;DHT22;38420;53.150;6.370;2023-04-23T07:00:09;8.10;99.90
52509;DHT22;38420;53.150;6.370;2023-04-23T07:02:36;9.90;99.90
52509;DHT22;38420;53.150;6.370;2023-04-23T07:05:01;8.20;99.90
52509;DHT22;38420;53.150;6.370;2023-04-23T07:07:27;8.90;99.90
52509;DHT22;38420;53.150;6.370;2023-04-23T07:09:52;12.00;99.90
52509;DHT22;38420;53.150;6.370;2023-04-23T07:12:18;11.40;99.90
52509;DHT22;38420;53.150;6.370;2023-04-23T07:14:44;12.30;99.90
52509;DHT22;38420;53.150;6.370;2023-04-23T07:17:10;11.00;99.90
52509;DHT22;38420;53.150;6.370;2023-04-23T07:19:36;11.80;99.90
52509;DHT22;38420;53.150;6.370;2023-04-23T07:22:02;12.50;99.90
52509;DHT22;38420;53.150;6.370;2023-04-23T07:24:28;12.40;99.90
52509;DHT22;38420;53.150;6.370;2023-04-23T07:26:53;10.50;99.90
52509;DHT22;38420;53.150;6.370;2023-04-23T07:29:19;9.60;99.90
52509;DHT22;38420;53.150;6.370;2023-04-23T07:31:45;9.80;99.90
52509;DHT22;38420;53.150;6.370;2023-04-23T07:34:11;9.70;99.90
52509;DHT22;38420;53.150;6.370;2023-04-23T07:36:37;10.90;99.90
52509;DHT22;38420;53.150;6.370;2023-04-23T07:39:03;12.10;99.90
52509;DHT22;38420;53.150;6.370;2023-04-23T07:41:30;10.40;99.90
52509;DHT22;38420;53.150;6.370;2023-04-23T07:43:56;11.20;99.90
52509;DHT22;38420;53.150;6.370;2023-04-23T07:46:21;10.00;99.90
52509;DHT22;38420;53.150;6.370;2023-04-23T07:48:47;10.80;99.90
52509;DHT22;38420;53.150;6.370;2023-04-23T07:51:12;11.80;99.90
52509;DHT22;38420;53.150;6.370;2023-04-23T07:53:38;11.90;99.90
52509;DHT22;38420;53.150;6.370;2023-04-23T07:56:04;12.90;99.90
52509;DHT22;38420;53.150;6.370;2023-04-23T07:58:29;10.60;99.90
52509;DHT22;38420;53.150;6.370;2023-04-23T08:00:57;10.70;99.90
52509;DHT22;38420;53.150;6.370;2023-04-23T08:03:23;11.00;99.90
52509;DHT22;38420;53.150;6.370;2023-04-23T08:05:48;11.50;99.90
52509;DHT22;38420;53.150;6.370;2023-04-23T08:08:14;13.40;99.90
52509;DHT22;38420;53.150;6.370;2023-04-23T08:10:40;12.70;99.90
52509;DHT22;38420;53.150;6.370;2023-04-23T08:13:06;14.50;99.90
52509;DHT22;38420;53.150;6.370;2023-04-23T08:15:32;14.60;99.90
52509;DHT22;38420;53.150;6.370;2023-04-23T08:17:57;14.00;99.90
52509;DHT22;38420;53.150;6.370;2023-04-23T08:20:23;13.80;99.90
52509;DHT22;38420;53.150;6.370;2023-04-23T08:22:50;14.80;99.90
52509;DHT22;38420;53.150;6.370;2023-04-23T08:25:18;15.30;99.90
52509;DHT22;38420;53.150;6.370;2023-04-23T08:27:44;15.10;99.90
52509;DHT22;38420;53.150;6.370;2023-04-23T08:30:10;15.70;99.90
52509;DHT22;38420;53.150;6.370;2023-04-23T08:32:38;16.00;99.90
52509;DHT22;38420;53.150;6.370;2023-04-23T08:35:04;16.40;99.90
52509;DHT22;38420;53.150;6.370;2023-04-23T08:37:30;16.50;99.90
52509;DHT22;38420;53.150;6.370;2023-04-23T08:39:55;17.10;99.90
52509;DHT22;38420;53.150;6.370;2023-04-23T08:42:50;17.90;99.90
52509;DHT22;38420;53.150;6.370;2023-04-23T08:45:17;18.50;99.90
52509;DHT22;38420;53.150;6.370;2023-04-23T08:47:43;18.80;99.90
52509;DHT22;38420;53.150;6.370;2023-04-23T08:50:18;18.90;99.90
52509;DHT22;38420;53.150;6.370;2023-04-23T08:52:49;18.50;99.90
52509;DHT22;38420;53.150;6.370;2023-04-23T08:55:15;18.60;99.90
52509;DHT22;38420;53.150;6.370;2023-04-23T08:57:41;18.50;99.90
52509;DHT22;38420;53.150;6.370;2023-04-23T09:00:11;18.10;99.90
52509;DHT22;38420;53.150;6.370;2023-04-23T09:02:40;18.10;99.90
52509;DHT22;38420;53.150;6.370;2023-04-23T09:05:06;18.20;99.90
52509;DHT22;38420;53.150;6.370;2023-04-23T09:07:33;18.10;99.90
52509;DHT22;38420;53.150;6.370;2023-04-23T09:10:03;17.80;99.90
52509;DHT22;38420;53.150;6.370;2023-04-23T09:12:29;18.00;99.90
52509;DHT22;38420;53.150;6.370;2023-04-23T09:14:55;17.80;99.90
52509;DHT22;38420;53.150;6.370;2023-04-23T09:17:22;17.60;99.90
52509;DHT22;38420;53.150;6.370;2023-04-23T09:19:50;17.40;99.90
52509;DHT22;38420;53.150;6.370;2023-04-23T09:22:45;17.00;99.90
52509;DHT22;38420;53.150;6.370;2023-04-23T09:25:15;16.80;99.90
52509;DHT22;38420;53.150;6.370;2023-04-23T09:27:42;16.30;99.90
52509;DHT22;38420;53.150;6.370;2023-04-23T09:30:09;16.00;99.90
52509;DHT22;38420;53.150;6.370;2023-04-23T09:32:38;15.90;99.90
52509;DHT22;38420;53.150;6.370;2023-04-23T09:35:12;15.70;99.90
52509;DHT22;38420;53.150;6.370;2023-04-23T09:37:41;16.10;99.90
52509;DHT22;38420;53.150;6.370;2023-04-23T09:40:07;16.10;99.90
52509;DHT22;38420;53.150;6.370;2023-04-23T09:42:34;16.00;99.90
52509;DHT22;38420;53.150;6.370;2023-04-23T09:45:04;15.80;99.90
52509;DHT22;38420;53.150;6.370;2023-04-23T09:47:34;16.10;99.90
52509;DHT22;38420;53.150;6.370;2023-04-23T09:50:03;16.10;99.90
52509;DHT22;38420;53.150;6.370;2023-04-23T09:52:32;16.10;99.90
52509;DHT22;38420;53.150;6.370;2023-04-23T09:55:01;15.90;99.90
52509;DHT22;38420;53.150;6.370;2023-04-23T09:57:27;15.90;99.90
52509;DHT22;38420;53.150;6.370;2023-04-23T09:59:55;16.20;99.90
52509;DHT22;38420;53.150;6.370;2023-04-23T10:02:26;15.80;99.90
52509;DHT22;38420;53.150;6.370;2023-04-23T10:04:52;15.80;99.90
52509;DHT22;38420;53.150;6.370;2023-04-23T10:07:17;15.80;99.90
52509;DHT22;38420;53.150;6.370;2023-04-23T10:09:44;15.50;99.90
52509;DHT22;38420;53.150;6.370;2023-04-23T10:12:10;15.50;99.90
52509;DHT22;38420;53.150;6.370;2023-04-23T10:14:38;15.60;99.90
52509;DHT22;38420;53.150;6.370;2023-04-23T10:17:04;15.80;99.90
52509;DHT22;38420;53.150;6.370;2023-04-23T10:19:31;15.70;99.90
52509;DHT22;38420;53.150;6.370;2023-04-23T10:22:03;15.50;99.90
52509;DHT22;38420;53.150;6.370;2023-04-23T10:24:34;15.60;99.90
52509;DHT22;38420;53.150;6.370;2023-04-23T10:27:02;15.50;99.90
52509;DHT22;38420;53.150;6.370;2023-04-23T10:29:33;15.60;99.90
52509;DHT22;38420;53.150;6.370;2023-04-23T10:32:02;15.50;99.90
52509;DHT22;38420;53.150;6.370;2023-04-23T10:34:30;15.60;99.90
52509;DHT22;38420;53.150;6.370;2023-04-23T10:36:56;15.60;99.90
52509;DHT22;38420;53.150;6.370;2023-04-23T10:39:26;15.80;99.90
52509;DHT22;38420;53.150;6.370;2023-04-23T10:41:53;15.70;99.90
52509;DHT22;38420;53.150;6.370;2023-04-23T10:44:20;15.60;99.90
52509;DHT22;38420;53.150;6.370;2023-04-23T10:46:53;15.70;99.90
52509;DHT22;38420;53.150;6.370;2023-04-23T10:49:23;15.90;99.90
52509;DHT22;38420;53.150;6.370;2023-04-23T10:52:00;16.10;99.90
52509;DHT22;38420;53.150;6.370;2023-04-23T10:54:30;16.10;99.90
52509;DHT22;38420;53.150;6.370;2023-04-23T10:57:01;16.20;99.90
52509;DHT22;38420;53.150;6.370;2023-04-23T10:59:28;16.20;99.90
52509;DHT22;38420;53.150;6.370;2023-04-23T11:01:56;16.20;99.90
52509;DHT22;38420;53.150;6.370;2023-04-23T11:04:28;16.10;99.90
52509;DHT22;38420;53.150;6.370;2023-04-23T11:06:55;16.20;99.90
52509;DHT22;38420;53.150;6.370;2023-04-23T11:09:28;16.00;99.90
52509;DHT22;38420;53.150;6.370;2023-04-23T11:11:55;16.00;99.90
52509;DHT22;38420;53.150;6.370;2023-04-23T11:14:32;16.00;99.90
52509;DHT22;38420;53.150;6.370;2023-04-23T11:17:00;16.20;99.90
52509;DHT22;38420;53.150;6.370;2023-04-23T11:19:26;16.40;99.90
52509;DHT22;38420;53.150;6.370;2023-04-23T11:22:14;16.30;99.90
52509;DHT22;38420;53.150;6.370;2023-04-23T11:24:43;16.40;99.90
52509;DHT22;38420;53.150;6.370;2023-04-23T11:27:15;16.30;99.90
52509;DHT22;38420;53.150;6.370;2023-04-23T11:29:43;16.30;99.90
52509;DHT22;38420;53.150;6.370;2023-04-23T11:32:10;16.20;99.90
52509;DHT22;38420;53.150;6.370;2023-04-23T11:34:42;16.10;99.90
52509;DHT22;38420;53.150;6.370;2023-04-23T11:37:12;16.10;99.90
52509;DHT22;38420;53.150;6.370;2023-04-23T11:39:39;16.10;99.90
52509;DHT22;38420;53.150;6.370;2023-04-23T11:42:23;16.10;99.90
52509;DHT22;38420;53.150;6.370;2023-04-23T11:44:49;16.10;99.90
52509;DHT22;38420;53.150;6.370;2023-04-23T11:47:15;16.00;99.90
52509;DHT22;38420;53.150;6.370;2023-04-23T11:49:44;16.20;99.90
52509;DHT22;38420;53.150;6.370;2023-04-23T11:52:10;16.50;99.90
52509;DHT22;38420;53.150;6.370;2023-04-23T11:54:38;16.70;99.90
52509;DHT22;38420;53.150;6.370;2023-04-23T11:57:04;16.80;99.90
52509;DHT22;38420;53.150;6.370;2023-04-23T11:59:30;16.80;99.90
52509;DHT22;38420;53.150;6.370;2023-04-23T12:01:57;16.80;99.90
52509;DHT22;38420;53.150;6.370;2023-04-23T12:04:28;17.00;99.90
52509;DHT22;38420;53.150;6.370;2023-04-23T12:06:55;17.10;99.90
52509;DHT22;38420;53.150;6.370;2023-04-23T12:09:24;17.10;99.90
52509;DHT22;38420;53.150;6.370;2023-04-23T12:11:50;17.00;99.90
52509;DHT22;38420;53.150;6.370;2023-04-23T12:14:16;17.00;99.90
52509;DHT22;38420;53.150;6.370;2023-04-23T12:16:47;17.00;99.90
52509;DHT22;38420;53.150;6.370;2023-04-23T12:19:36;17.20;99.90
52509;DHT22;38420;53.150;6.370;2023-04-23T12:22:03;17.50;99.90
52509;DHT22;38420;53.150;6.370;2023-04-23T12:24:48;17.50;99.90
52509;DHT22;38420;53.150;6.370;2023-04-23T12:27:19;17.40;99.90
52509;DHT22;38420;53.150;6.370;2023-04-23T12:29:46;17.40;99.90
52509;DHT22;38420;53.150;6.370;2023-04-23T12:32:14;17.60;99.90
52509;DHT22;38420;53.150;6.370;2023-04-23T12:34:54;17.70;99.90
52509;DHT22;38420;53.150;6.370;2023-04-23T12:37:29;17.70;99.90
52509;DHT22;38420;53.150;6.370;2023-04-23T12:39:56;17.40;99.90
52509;DHT22;38420;53.150;6.370;2023-04-23T12:42:24;17.50;99.90
52509;DHT22;38420;53.150;6.370;2023-04-23T12:44:50;17.60;99.90
52509;DHT22;38420;53.150;6.370;2023-04-23T12:47:16;17.70;99.90
52509;DHT22;38420;53.150;6.370;2023-04-23T12:49:45;17.80;99.90
52509;DHT22;38420;53.150;6.370;2023-04-23T12:52:11;17.80;99.90
52509;DHT22;38420;53.150;6.370;2023-04-23T12:54:38;17.80;99.90
52509;DHT22;38420;53.150;6.370;2023-04-23T12:57:07;17.80;99.90
52509;DHT22;38420;53.150;6.370;2023-04-23T12:59:34;17.80;99.90
52509;DHT22;38420;53.150;6.370;2023-04-23T13:02:00;17.80;99.90
52509;DHT22;38420;53.150;6.370;2023-04-23T13:04:27;17.80;99.90
52509;DHT22;38420;53.150;6.370;2023-04-23T13:06:53;17.80;99.90
52509;DHT22;38420;53.150;6.370;2023-04-23T13:09:19;17.80;99.90
52509;DHT22;38420;53.150;6.370;2023-04-23T13:11:46;17.70;99.90
52509;DHT22;38420;53.150;6.370;2023-04-23T13:14:14;17.70;99.90
52509;DHT22;38420;53.150;6.370;2023-04-23T13:16:41;17.70;99.90
52509;DHT22;38420;53.150;6.370;2023-04-23T13:19:06;17.80;99.90
52509;DHT22;38420;53.150;6.370;2023-04-23T13:21:32;17.80;99.90
52509;DHT22;38420;53.150;6.370;2023-04-23T13:23:57;18.00;99.90
52509;DHT22;38420;53.150;6.370;2023-04-23T13:26:23;18.10;99.90
52509;DHT22;38420;53.150;6.370;2023-04-23T13:28:49;18.00;99.90
52509;DHT22;38420;53.150;6.370;2023-04-23T13:31:14;18.00;99.90
52509;DHT22;38420;53.150;6.370;2023-04-23T13:33:40;18.00;99.90
52509;DHT22;38420;53.150;6.370;2023-04-23T13:36:07;18.00;99.90
52509;DHT22;38420;53.150;6.370;2023-04-23T13:38:33;18.00;99.90
52509;DHT22;38420;53.150;6.370;2023-04-23T13:40:58;18.00;99.90
52509;DHT22;38420;53.150;6.370;2023-04-23T13:43:24;18.00;99.90
52509;DHT22;38420;53.150;6.370;2023-04-23T13:45:52;18.00;99.90
52509;DHT22;38420;53.150;6.370;2023-04-23T13:48:18;18.00;99.90
52509;DHT22;38420;53.150;6.370;2023-04-23T13:50:43;18.00;99.90
52509;DHT22;38420;53.150;6.370;2023-04-23T13:53:10;17.90;99.90
52509;DHT22;38420;53.150;6.370;2023-04-23T13:55:36;17.90;99.90
52509;DHT22;38420;53.150;6.370;2023-04-23T13:58:03;17.90;99.90
52509;DHT22;38420;53.150;6.370;2023-04-23T14:00:29;18.00;99.90
52509;DHT22;38420;53.150;6.370;2023-04-23T14:02:55;18.20;99.90
52509;DHT22;38420;53.150;6.370;2023-04-23T14:05:20;18.20;99.90
52509;DHT22;38420;53.150;6.370;2023-04-23T14:07:46;18.30;99.90
52509;DHT22;38420;53.150;6.370;2023-04-23T14:10:12;18.40;99.90
52509;DHT22;38420;53.150;6.370;2023-04-23T14:12:39;18.40;99.90
52509;DHT22;38420;53.150;6.370;2023-04-23T14:15:07;18.60;99.90
52509;DHT22;38420;53.150;6.370;2023-04-23T14:17:33;18.70;99.90
52509;DHT22;38420;53.150;6.370;2023-04-23T14:19:59;18.80;99.90
52509;DHT22;38420;53.150;6.370;2023-04-23T14:22:24;18.90;99.90
52509;DHT22;38420;53.150;6.370;2023-04-23T14:24:55;18.70;99.90
52509;DHT22;38420;53.150;6.370;2023-04-23T14:27:22;18.60;99.90
52509;DHT22;38420;53.150;6.370;2023-04-23T14:30:15;18.60;99.90
52509;DHT22;38420;53.150;6.370;2023-04-23T14:32:41;18.70;99.90
52509;DHT22;38420;53.150;6.370;2023-04-23T14:35:08;18.90;99.80
52509;DHT22;38420;53.150;6.370;2023-04-23T14:37:33;18.90;99.90
52509;DHT22;38420;53.150;6.370;2023-04-23T14:39:59;18.70;99.90
52509;DHT22;38420;53.150;6.370;2023-04-23T14:42:24;18.60;99.90
52509;DHT22;38420;53.150;6.370;2023-04-23T14:44:50;18.40;99.90
52509;DHT22;38420;53.150;6.370;2023-04-23T14:47:20;18.40;99.90
52509;DHT22;38420;53.150;6.370;2023-04-23T14:49:46;18.20;99.90
52509;DHT22;38420;53.150;6.370;2023-04-23T14:52:12;18.20;99.90
52509;DHT22;38420;53.150;6.370;2023-04-23T14:54:37;18.20;99.90
52509;DHT22;38420;53.150;6.370;2023-04-23T14:57:03;18.10;99.90
52509;DHT22;38420;53.150;6.370;2023-04-23T14:59:29;18.00;99.90
52509;DHT22;38420;53.150;6.370;2023-04-23T15:01:55;18.00;99.90
52509;DHT22;38420;53.150;6.370;2023-04-23T15:04:21;17.80;99.90
52509;DHT22;38420;53.150;6.370;2023-04-23T15:06:46;17.70;99.90
52509;DHT22;38420;53.150;6.370;2023-04-23T15:09:12;17.70;99.90
52509;DHT22;38420;53.150;6.370;2023-04-23T15:11:39;17.70;99.90
52509;DHT22;38420;53.150;6.370;2023-04-23T15:16:37;17.80;99.90
52509;DHT22;38420;53.150;6.370;2023-04-23T15:19:04;17.80;99.90
52509;DHT22;38420;53.150;6.370;2023-04-23T15:21:36;17.80;99.90
52509;DHT22;38420;53.150;6.370;2023-04-23T15:24:02;17.70;99.90
52509;DHT22;38420;53.150;6.370;2023-04-23T15:26:28;17.70;99.90
52509;DHT22;38420;53.150;6.370;2023-04-23T15:28:54;17.70;99.90
52509;DHT22;38420;53.150;6.370;2023-04-23T15:31:20;17.80;99.90
52509;DHT22;38420;53.150;6.370;2023-04-23T15:33:45;17.70;99.90
52509;DHT22;38420;53.150;6.370;2023-04-23T15:36:12;17.70;99.90
52509;DHT22;38420;53.150;6.370;2023-04-23T15:38:37;17.70;99.90